createdAt,value
2018-07-15T00:02:00.620Z,15.95
2018-07-15T00:04:29.187Z,15.91
2018-07-15T00:06:57.788Z,15.84
2018-07-15T00:09:26.351Z,15.76
2018-07-15T00:11:54.912Z,15.82
2018-07-15T00:14:23.504Z,15.92
2018-07-15T00:16:52.052Z,15.69
2018-07-15T00:19:20.692Z,15.69
2018-07-15T00:21:49.275Z,15.53
2018-07-15T00:24:17.860Z,15.53
2018-07-15T00:26:46.552Z,15.45
2018-07-15T00:29:17.421Z,15.52
2018-07-15T00:31:46.133Z,15.56
2018-07-15T00:34:14.783Z,15.58
2018-07-15T00:36:43.402Z,15.65
2018-07-15T00:39:12.500Z,15.86
2018-07-15T00:41:41.105Z,16.01
2018-07-15T00:44:09.852Z,15.91
2018-07-15T00:46:38.480Z,15.92
2018-07-15T00:49:07.684Z,15.88
2018-07-15T00:51:36.236Z,15.69
2018-07-15T00:54:04.820Z,15.70
2018-07-15T00:56:33.452Z,15.73
2018-07-15T00:59:02.181Z,15.78
2018-07-15T01:01:30.914Z,15.76
2018-07-15T01:03:59.750Z,15.66
2018-07-15T01:06:28.688Z,15.60
2018-07-15T01:08:57.449Z,15.72
2018-07-15T01:11:26.130Z,15.83
2018-07-15T01:14:01.249Z,15.88
2018-07-15T01:16:29.812Z,15.86
2018-07-15T01:18:58.389Z,15.84
2018-07-15T01:21:27.012Z,15.88
2018-07-15T01:23:55.561Z,15.96
2018-07-15T01:26:24.231Z,15.93
2018-07-15T01:28:52.793Z,15.83
2018-07-15T01:31:21.342Z,15.76
2018-07-15T01:33:49.899Z,15.69
2018-07-15T01:36:18.456Z,15.55
2018-07-15T01:38:47.053Z,15.46
2018-07-15T01:41:15.696Z,15.56
2018-07-15T01:43:44.229Z,15.48
2018-07-15T01:46:12.872Z,15.40
2018-07-15T01:48:41.421Z,15.41
2018-07-15T01:51:10.420Z,15.52
2018-07-15T01:53:39.053Z,15.42
2018-07-15T01:56:07.636Z,15.17
2018-07-15T01:58:36.183Z,15.19
2018-07-15T02:01:04.740Z,15.28
2018-07-15T02:03:33.516Z,15.18
2018-07-15T02:06:02.041Z,15.31
2018-07-15T02:08:30.721Z,15.37
2018-07-15T02:10:59.247Z,15.49
2018-07-15T02:13:27.796Z,15.60
2018-07-15T02:15:56.340Z,15.58
2018-07-15T02:18:24.879Z,15.66
2018-07-15T02:20:53.439Z,15.55
2018-07-15T02:23:22.028Z,15.54
2018-07-15T02:25:50.558Z,15.50
2018-07-15T02:28:19.255Z,15.36
2018-07-15T02:30:47.805Z,15.28
2018-07-15T02:33:16.689Z,15.14
2018-07-15T02:35:45.284Z,15.05
2018-07-15T02:38:13.884Z,15.07
2018-07-15T02:40:42.564Z,15.13
2018-07-15T02:43:11.416Z,15.00
2018-07-15T02:45:39.965Z,15.08
2018-07-15T02:48:08.530Z,15.23
2018-07-15T02:50:37.150Z,15.30
2018-07-15T02:53:06.221Z,15.37
2018-07-15T02:55:34.936Z,15.40
2018-07-15T02:58:03.531Z,15.43
2018-07-15T03:00:32.084Z,15.49
2018-07-15T03:03:01.264Z,15.54
2018-07-15T03:05:29.824Z,15.63
2018-07-15T03:07:58.379Z,15.62
2018-07-15T03:10:26.999Z,15.71
2018-07-15T03:12:55.572Z,15.63
2018-07-15T03:15:24.257Z,15.49
2018-07-15T03:17:52.804Z,15.36
2018-07-15T03:20:21.440Z,15.38
2018-07-15T03:22:50.037Z,15.35
2018-07-15T03:25:19.280Z,15.46
2018-07-15T03:27:47.830Z,15.40
2018-07-15T03:30:16.445Z,15.44
2018-07-15T03:32:44.992Z,15.50
2018-07-15T03:35:17.572Z,15.51
2018-07-15T03:37:46.136Z,15.55
2018-07-15T03:40:14.661Z,15.45
2018-07-15T03:42:43.233Z,15.38
2018-07-15T03:45:13.003Z,14.91
2018-07-15T03:47:41.863Z,15.37
2018-07-15T03:50:10.452Z,15.39
2018-07-15T03:52:38.992Z,15.44
2018-07-15T03:55:07.669Z,15.46
2018-07-15T03:57:36.249Z,15.54
2018-07-15T04:00:05.033Z,15.57
2018-07-15T04:02:33.583Z,15.58
2018-07-15T04:05:02.150Z,15.58
2018-07-15T04:07:30.689Z,15.60
2018-07-15T04:09:59.236Z,15.61
2018-07-15T04:12:27.829Z,15.71
2018-07-15T04:14:56.396Z,15.78
2018-07-15T04:17:24.948Z,15.84
2018-07-15T04:19:53.541Z,15.87
2018-07-15T04:22:22.095Z,15.89
2018-07-15T04:24:50.668Z,15.85
2018-07-15T04:27:19.486Z,15.86
2018-07-15T04:29:48.043Z,15.89
2018-07-15T04:32:16.602Z,15.89
2018-07-15T04:34:45.253Z,15.83
2018-07-15T04:37:13.825Z,15.83
2018-07-15T04:39:42.388Z,15.81
2018-07-15T04:42:11.068Z,15.86
2018-07-15T04:44:39.660Z,15.95
2018-07-15T04:47:08.216Z,16.03
2018-07-15T04:49:36.787Z,16.07
2018-07-15T04:52:05.355Z,16.11
2018-07-15T04:57:24.408Z,16.16
2018-07-15T04:59:52.949Z,16.22
2018-07-15T05:02:21.607Z,16.26
2018-07-15T05:04:50.115Z,16.38
2018-07-15T05:07:19.041Z,16.45
2018-07-15T05:09:47.642Z,16.48
2018-07-15T05:12:16.222Z,16.53
2018-07-15T05:14:44.780Z,16.59
2018-07-15T05:17:13.728Z,16.66
2018-07-15T05:19:42.276Z,16.76
2018-07-15T05:22:10.887Z,16.80
2018-07-15T05:24:39.472Z,16.92
2018-07-15T05:27:08.675Z,16.93
2018-07-15T05:29:37.247Z,17.00
2018-07-15T05:32:05.902Z,17.12
2018-07-15T05:34:34.482Z,17.18
2018-07-15T05:37:03.159Z,17.15
2018-07-15T05:39:31.725Z,17.21
2018-07-15T05:42:00.336Z,17.37
2018-07-15T05:44:28.945Z,17.43
2018-07-15T05:46:57.524Z,17.52
2018-07-15T05:49:26.080Z,17.60
2018-07-15T05:51:54.697Z,17.73
2018-07-15T05:54:23.269Z,17.84
2018-07-15T05:56:51.818Z,17.93
2018-07-15T05:59:20.358Z,18.01
2018-07-15T06:01:48.909Z,18.10
2018-07-15T06:04:17.544Z,18.23
2018-07-15T06:06:46.244Z,18.35
2018-07-15T06:09:17.645Z,18.43
2018-07-15T06:11:46.231Z,18.61
2018-07-15T06:14:14.794Z,18.75
2018-07-15T06:16:43.398Z,18.70
2018-07-15T06:19:12.447Z,18.76
2018-07-15T06:21:41.025Z,18.95
2018-07-15T06:24:09.681Z,19.11
2018-07-15T06:26:38.307Z,19.24
2018-07-15T06:29:06.843Z,19.40
2018-07-15T06:31:35.879Z,19.58
2018-07-15T06:34:04.603Z,19.68
2018-07-15T06:36:33.148Z,19.75
2018-07-15T06:39:01.729Z,19.85
2018-07-15T06:41:30.274Z,19.98
2018-07-15T06:43:58.837Z,20.09
2018-07-15T06:46:27.637Z,20.20
2018-07-15T06:48:56.187Z,20.39
2018-07-15T06:51:24.872Z,20.52
2018-07-15T06:53:53.467Z,20.69
2018-07-15T06:56:22.443Z,20.84
2018-07-15T06:58:51.035Z,21.02
2018-07-15T07:01:19.583Z,21.18
2018-07-15T07:03:48.429Z,21.39
2018-07-15T07:06:17.169Z,21.53
2018-07-15T07:08:45.725Z,21.56
2018-07-15T07:11:15.713Z,21.73
2018-07-15T07:13:44.283Z,21.89
2018-07-15T07:16:12.884Z,22.00
2018-07-15T07:18:41.437Z,22.14
2018-07-15T07:21:13.248Z,22.16
2018-07-15T07:23:44.942Z,22.23
2018-07-15T07:26:13.576Z,22.37
2018-07-15T07:28:42.166Z,22.52
2018-07-15T07:31:11.060Z,22.67
2018-07-15T07:33:39.773Z,22.69
2018-07-15T07:36:08.371Z,22.79
2018-07-15T07:38:37.175Z,22.96
2018-07-15T07:41:05.790Z,22.95
2018-07-15T07:43:34.423Z,23.05
2018-07-15T07:46:03.040Z,23.29
2018-07-15T07:48:31.609Z,23.27
2018-07-15T07:51:00.629Z,23.45
2018-07-15T07:53:29.450Z,23.55
2018-07-15T07:55:58.051Z,23.50
2018-07-15T07:58:26.683Z,23.53
2018-07-15T08:00:55.777Z,23.70
2018-07-15T08:03:24.400Z,23.80
2018-07-15T08:05:55.801Z,23.76
2018-07-15T08:08:24.368Z,23.77
2018-07-15T08:10:52.940Z,23.84
2018-07-15T08:13:21.577Z,23.90
2018-07-15T08:15:50.297Z,24.14
2018-07-15T08:18:19.009Z,24.21
2018-07-15T08:20:47.716Z,24.37
2018-07-15T08:23:16.316Z,24.35
2018-07-15T08:25:44.912Z,24.38
2018-07-15T08:28:13.541Z,24.29
2018-07-15T08:30:53.064Z,24.45
2018-07-15T08:33:21.803Z,24.41
2018-07-15T08:35:50.724Z,24.42
2018-07-15T08:38:19.456Z,24.46
2018-07-15T08:40:48.540Z,24.57
2018-07-15T08:43:17.067Z,24.55
2018-07-15T08:45:45.609Z,24.73
2018-07-15T08:48:14.175Z,24.65
2018-07-15T08:50:43.252Z,24.75
2018-07-15T08:53:13.554Z,24.89
2018-07-15T08:55:42.140Z,24.89
2018-07-15T08:58:11.152Z,25.05
2018-07-15T09:00:39.756Z,25.36
2018-07-15T09:03:08.467Z,25.34
2018-07-15T09:05:37.021Z,25.21
2018-07-15T09:08:05.826Z,25.21
2018-07-15T09:10:34.455Z,25.45
2018-07-15T09:13:03.090Z,25.54
2018-07-15T09:15:31.697Z,25.62
2018-07-15T09:18:00.301Z,25.62
2018-07-15T09:20:29.004Z,25.76
2018-07-15T09:22:57.608Z,25.97
2018-07-15T09:25:26.467Z,26.01
2018-07-15T09:27:55.168Z,25.82
2018-07-15T09:30:23.747Z,25.68
2018-07-15T09:32:52.687Z,25.70
2018-07-15T09:35:21.293Z,25.72
2018-07-15T09:37:49.896Z,25.76
2018-07-15T09:40:18.462Z,25.74
2018-07-15T09:42:47.448Z,25.59
2018-07-15T09:45:16.363Z,25.62
2018-07-15T09:47:44.998Z,25.60
2018-07-15T09:50:13.583Z,25.53
2018-07-15T09:52:42.485Z,25.69
2018-07-15T09:55:12.511Z,25.88
2018-07-15T09:57:41.181Z,26.04
2018-07-15T10:00:12.712Z,26.20
2018-07-15T10:02:41.281Z,26.24
2018-07-15T10:05:10.110Z,26.36
2018-07-15T10:07:38.799Z,26.43
2018-07-15T10:10:08.826Z,26.28
2018-07-15T10:12:37.519Z,26.44
2018-07-15T10:15:06.201Z,26.38
2018-07-15T10:17:34.930Z,26.43
2018-07-15T10:20:03.749Z,26.34
2018-07-15T10:22:32.405Z,26.32
2018-07-15T10:25:01.036Z,26.30
2018-07-15T10:27:29.588Z,26.15
2018-07-15T10:29:58.911Z,26.13
2018-07-15T10:32:27.507Z,26.05
2018-07-15T10:34:56.165Z,26.04
2018-07-15T10:37:24.849Z,26.12
2018-07-15T10:39:53.653Z,26.08
2018-07-15T10:42:22.305Z,26.01
2018-07-15T10:44:50.897Z,25.84
2018-07-15T10:47:19.825Z,25.59
2018-07-15T10:49:48.391Z,25.30
2018-07-15T10:52:17.007Z,25.19
2018-07-15T10:54:45.585Z,25.19
2018-07-15T10:57:14.408Z,24.74
2018-07-15T10:59:42.980Z,24.47
2018-07-15T11:02:11.788Z,24.33
2018-07-15T11:04:40.669Z,24.07
2018-07-15T11:07:09.320Z,24.19
2018-07-15T11:09:38.005Z,24.06
2018-07-15T11:12:06.660Z,24.40
2018-07-15T11:14:35.244Z,24.72
2018-07-15T11:17:03.889Z,24.87
2018-07-15T11:19:32.552Z,24.71
2018-07-15T11:22:07.459Z,24.85
2018-07-15T11:24:36.012Z,25.09
2018-07-15T11:27:04.965Z,25.26
2018-07-15T11:29:33.562Z,25.40
2018-07-15T11:32:02.416Z,25.27
2018-07-15T11:34:30.991Z,25.24
2018-07-15T11:36:59.564Z,25.10
2018-07-15T11:39:28.113Z,25.03
2018-07-15T11:41:56.660Z,24.91
2018-07-15T11:44:25.297Z,24.74
2018-07-15T11:46:53.831Z,24.49
2018-07-15T11:49:23.439Z,24.22
2018-07-15T11:51:52.071Z,24.15
2018-07-15T11:54:20.838Z,23.94
2018-07-15T11:56:49.948Z,23.81
2018-07-15T11:59:18.712Z,23.88
2018-07-15T12:01:47.418Z,23.81
2018-07-15T12:04:17.048Z,23.86
2018-07-15T12:06:45.624Z,23.35
2018-07-15T12:09:15.455Z,23.34
2018-07-15T12:11:44.313Z,23.51
2018-07-15T12:14:12.874Z,23.33
2018-07-15T12:16:41.437Z,23.44
2018-07-15T12:19:10.574Z,23.48
2018-07-15T12:21:39.208Z,23.58
2018-07-15T12:24:07.781Z,23.51
2018-07-15T12:26:36.416Z,22.88
2018-07-15T12:29:05.177Z,22.71
2018-07-15T12:31:33.872Z,22.63
2018-07-15T12:34:02.505Z,22.58
2018-07-15T12:36:31.456Z,22.63
2018-07-15T12:39:00.096Z,22.65
2018-07-15T12:41:28.646Z,22.76
2018-07-15T12:43:57.212Z,22.41
2018-07-15T12:46:25.870Z,22.32
2018-07-15T12:48:54.441Z,22.46
2018-07-15T12:51:23.207Z,22.54
2018-07-15T12:53:51.800Z,22.71
2018-07-15T12:56:20.477Z,22.53
2018-07-15T12:58:49.145Z,22.37
2018-07-15T13:01:17.799Z,22.50
2018-07-15T13:03:46.352Z,22.50
2018-07-15T13:06:15.492Z,22.15
2018-07-15T13:08:44.203Z,22.12
2018-07-15T13:11:13.237Z,22.29
2018-07-15T13:13:41.895Z,22.40
2018-07-15T13:16:10.998Z,22.10
2018-07-15T13:18:39.616Z,22.18
2018-07-15T13:21:08.211Z,22.56
2018-07-15T13:23:36.764Z,22.45
2018-07-15T13:26:05.361Z,22.38
2018-07-15T13:28:33.951Z,22.47
2018-07-15T13:31:02.695Z,22.85
2018-07-15T13:33:31.436Z,22.70
2018-07-15T13:35:59.982Z,22.79
2018-07-15T13:38:28.664Z,22.85
2018-07-15T13:40:57.222Z,22.66
2018-07-15T13:43:25.812Z,22.83
2018-07-15T13:45:54.448Z,22.80
2018-07-15T13:48:23.045Z,22.61
2018-07-15T13:50:51.650Z,22.51
2018-07-15T13:53:20.243Z,22.45
2018-07-15T13:55:48.836Z,22.59
2018-07-15T13:58:17.449Z,22.59
2018-07-15T14:00:46.082Z,22.57
2018-07-15T14:03:14.908Z,22.44
2018-07-15T14:05:44.670Z,22.28
2018-07-15T14:08:13.248Z,21.64
2018-07-15T14:10:41.933Z,21.57
2018-07-15T14:13:12.875Z,21.53
2018-07-15T14:15:41.486Z,21.54
2018-07-15T14:18:10.193Z,21.54
2018-07-15T14:20:38.748Z,21.35
2018-07-15T14:23:07.601Z,21.62
2018-07-15T14:25:36.158Z,21.62
2018-07-15T14:28:04.881Z,21.92
2018-07-15T14:30:33.466Z,22.27
2018-07-15T14:33:02.031Z,22.62
2018-07-15T14:35:30.674Z,22.77
2018-07-15T14:37:59.330Z,23.10
2018-07-15T14:40:27.869Z,23.26
2018-07-15T14:42:56.442Z,23.18
2018-07-15T14:45:25.124Z,23.41
2018-07-15T14:47:53.682Z,23.69
2018-07-15T14:50:22.214Z,24.01
2018-07-15T14:52:50.779Z,24.33
2018-07-15T14:55:19.363Z,24.60
2018-07-15T14:57:47.927Z,24.78
2018-07-15T15:00:16.592Z,25.03
2018-07-15T15:02:45.195Z,25.24
2018-07-15T15:05:14.972Z,25.39
2018-07-15T15:07:43.562Z,25.79
2018-07-15T15:10:12.191Z,25.82
2018-07-15T15:12:40.832Z,25.95
2018-07-15T15:15:09.521Z,26.18
2018-07-15T15:17:38.191Z,26.41
2018-07-15T15:20:06.758Z,26.60
2018-07-15T15:22:35.616Z,26.71
2018-07-15T15:25:04.612Z,26.79
2018-07-15T15:27:33.151Z,26.94
2018-07-15T15:30:01.719Z,26.97
2018-07-15T15:32:30.449Z,27.08
2018-07-15T15:34:59.206Z,27.03
2018-07-15T15:37:28.040Z,27.06
2018-07-15T15:39:56.958Z,27.04
2018-07-15T15:42:45.938Z,27.15
2018-07-15T15:45:14.615Z,27.09
2018-07-15T15:47:43.193Z,26.79
2018-07-15T15:50:13.201Z,26.25
2018-07-15T15:52:42.320Z,26.19
2018-07-15T15:55:11.581Z,25.25
2018-07-15T15:57:40.204Z,24.64
2018-07-15T16:00:10.364Z,24.47
2018-07-15T16:02:39.054Z,24.54
2018-07-15T16:05:09.059Z,24.34
2018-07-15T16:07:38.041Z,24.45
2018-07-15T16:10:07.792Z,24.34
2018-07-15T16:12:36.642Z,24.39
2018-07-15T16:15:05.645Z,24.51
2018-07-15T16:17:34.295Z,24.59
2018-07-15T16:20:02.906Z,24.42
2018-07-15T16:22:31.602Z,24.19
2018-07-15T16:27:50.464Z,24.36
2018-07-15T16:30:19.151Z,24.26
2018-07-15T16:32:48.048Z,24.38
2018-07-15T16:35:16.614Z,24.53
2018-07-15T16:37:45.398Z,24.52
2018-07-15T16:40:14.186Z,24.57
2018-07-15T16:42:42.880Z,24.79
2018-07-15T16:45:12.096Z,24.98
2018-07-15T16:47:40.776Z,25.16
2018-07-15T16:50:09.364Z,25.15
2018-07-15T16:52:37.969Z,25.16
2018-07-15T16:55:09.366Z,25.16
2018-07-15T16:57:37.968Z,24.96
2018-07-15T17:00:06.575Z,25.08
2018-07-15T17:02:35.414Z,25.18
2018-07-15T17:05:04.149Z,25.39
2018-07-15T17:07:32.800Z,25.56
2018-07-15T17:10:01.608Z,25.67
2018-07-15T17:12:30.161Z,25.66
2018-07-15T17:14:58.779Z,25.52
2018-07-15T17:17:27.420Z,25.33
2018-07-15T17:19:55.973Z,25.09
2018-07-15T17:22:24.589Z,24.95
2018-07-15T17:24:53.237Z,24.89
2018-07-15T17:27:21.897Z,24.69
2018-07-15T17:29:50.476Z,24.57
2018-07-15T17:32:19.330Z,24.44
2018-07-15T17:34:47.982Z,24.37
2018-07-15T17:37:16.545Z,24.20
2018-07-15T17:39:45.200Z,23.99
2018-07-15T17:42:13.738Z,23.84
2018-07-15T17:44:42.604Z,23.59
2018-07-15T17:47:11.941Z,23.61
2018-07-15T17:49:40.634Z,23.64
2018-07-15T17:52:09.244Z,23.65
2018-07-15T17:57:28.154Z,23.19
2018-07-15T17:59:56.692Z,23.23
2018-07-15T18:02:25.336Z,23.25
2018-07-15T18:04:54.032Z,23.26
2018-07-15T18:07:23.929Z,23.15
2018-07-15T18:09:52.527Z,22.92
2018-07-15T18:12:21.105Z,22.69
2018-07-15T18:14:50.102Z,22.50
2018-07-15T18:17:18.677Z,22.31
2018-07-15T18:19:47.871Z,22.09
2018-07-15T18:22:16.448Z,21.96
2018-07-15T18:24:45.139Z,22.03
2018-07-15T18:27:13.900Z,21.97
2018-07-15T18:29:42.429Z,21.85
2018-07-15T18:32:11.061Z,21.81
2018-07-15T18:34:39.688Z,21.90
2018-07-15T18:37:09.111Z,21.79
2018-07-15T18:39:37.710Z,21.64
2018-07-15T18:42:06.291Z,21.41
2018-07-15T18:44:34.877Z,21.49
2018-07-15T18:47:03.464Z,21.55
2018-07-15T18:49:32.025Z,21.46
2018-07-15T18:52:01.000Z,21.34
2018-07-15T18:54:29.635Z,21.33
2018-07-15T18:56:58.211Z,21.35
2018-07-15T18:59:26.932Z,21.22
2018-07-15T19:01:55.676Z,21.07
2018-07-15T19:04:24.308Z,20.92
2018-07-15T19:06:52.877Z,20.91
2018-07-15T19:09:21.501Z,20.89
2018-07-15T19:11:50.096Z,20.81
2018-07-15T19:14:19.336Z,20.72
2018-07-15T19:16:48.214Z,20.63
2018-07-15T19:19:16.755Z,20.43
2018-07-15T19:21:45.526Z,20.39
2018-07-15T19:24:14.241Z,20.27
2018-07-15T19:26:42.824Z,20.10
2018-07-15T19:29:11.992Z,19.96
2018-07-15T19:31:40.634Z,19.96
2018-07-15T19:34:09.284Z,19.79
2018-07-15T19:36:38.209Z,19.85
2018-07-15T19:39:07.904Z,19.89
2018-07-15T19:41:36.451Z,19.89
2018-07-15T19:44:05.472Z,19.78
2018-07-15T19:46:34.052Z,19.74
2018-07-15T19:49:02.703Z,19.76
2018-07-15T19:51:31.761Z,19.64
2018-07-15T19:54:00.361Z,19.56
2018-07-15T19:56:28.951Z,19.60
2018-07-15T19:58:57.526Z,19.57
2018-07-15T20:01:26.170Z,19.54
2018-07-15T20:03:54.695Z,19.44
2018-07-15T20:06:24.055Z,19.48
2018-07-15T20:08:53.092Z,19.06
2018-07-15T20:11:22.700Z,19.19
2018-07-15T20:13:51.319Z,19.15
2018-07-15T20:16:20.199Z,18.96
2018-07-15T20:18:48.779Z,18.97
2018-07-15T20:21:17.388Z,19.05
2018-07-15T20:23:45.958Z,19.13
2018-07-15T20:26:14.577Z,19.11
2018-07-15T20:28:43.173Z,19.21
2018-07-15T20:31:12.073Z,19.28
2018-07-15T20:33:40.764Z,19.05
2018-07-15T20:36:09.392Z,18.90
2018-07-15T20:38:38.204Z,18.80
2018-07-15T20:41:13.756Z,18.81
2018-07-15T20:43:42.599Z,18.75
2018-07-15T20:46:11.157Z,18.90
2018-07-15T20:48:39.893Z,19.00
2018-07-15T20:51:08.501Z,18.90
2018-07-15T20:53:38.304Z,18.97
2018-07-15T20:56:07.168Z,19.04
2018-07-15T20:58:36.270Z,19.07
2018-07-15T21:01:04.876Z,19.02
2018-07-15T21:03:33.660Z,18.95
2018-07-15T21:06:03.137Z,19.15
2018-07-15T21:08:31.714Z,19.05
2018-07-15T21:11:00.275Z,19.00
2018-07-15T21:13:28.831Z,18.95
2018-07-15T21:15:57.368Z,18.75
2018-07-15T21:18:25.948Z,18.73
2018-07-15T21:20:54.560Z,18.66
2018-07-15T21:23:23.123Z,18.61
2018-07-15T21:25:51.730Z,18.70
2018-07-15T21:28:20.355Z,18.61
2018-07-15T21:30:48.920Z,18.48
2018-07-15T21:33:17.505Z,18.44
2018-07-15T21:35:46.119Z,18.41
2018-07-15T21:38:14.821Z,18.39
2018-07-15T21:40:43.577Z,18.30
2018-07-15T21:43:13.393Z,18.21
2018-07-15T21:48:35.187Z,17.88
2018-07-15T21:51:03.742Z,17.90
2018-07-15T21:53:32.355Z,18.00
2018-07-15T21:56:00.939Z,18.15
2018-07-15T21:58:29.500Z,18.25
2018-07-15T22:00:58.092Z,18.31
2018-07-15T22:03:26.888Z,18.35
2018-07-15T22:05:56.295Z,18.35
2018-07-15T22:08:36.431Z,18.12
2018-07-15T22:11:05.061Z,18.03
2018-07-15T22:13:33.600Z,18.08
2018-07-15T22:16:02.266Z,18.01
2018-07-15T22:18:30.924Z,18.04
2018-07-15T22:20:59.488Z,18.18
2018-07-15T22:23:28.082Z,18.07
2018-07-15T22:25:56.646Z,18.00
2018-07-15T22:28:25.208Z,18.02
2018-07-15T22:30:53.968Z,18.01
2018-07-15T22:33:22.559Z,17.88
2018-07-15T22:35:51.183Z,17.89
2018-07-15T22:38:20.176Z,17.91
2018-07-15T22:40:48.824Z,17.93
2018-07-15T22:43:17.501Z,17.93
2018-07-15T22:45:46.136Z,17.90
2018-07-15T22:48:14.704Z,17.89
2018-07-15T22:50:44.186Z,17.89
2018-07-15T22:53:13.075Z,17.94
2018-07-15T22:55:41.669Z,17.95
2018-07-15T22:58:10.407Z,17.96
2018-07-15T23:00:39.008Z,17.94
2018-07-15T23:03:07.578Z,17.86
2018-07-15T23:05:48.544Z,17.79
2018-07-15T23:08:17.214Z,17.75
2018-07-15T23:10:45.863Z,17.72
2018-07-15T23:13:15.477Z,17.72
2018-07-15T23:15:44.376Z,17.65
2018-07-15T23:18:13.087Z,17.62
2018-07-15T23:20:42.523Z,17.63
2018-07-15T23:23:12.941Z,17.62
2018-07-15T23:25:41.960Z,17.59
2018-07-15T23:28:11.884Z,17.57
2018-07-15T23:30:41.180Z,17.44
2018-07-15T23:33:11.163Z,17.21
2018-07-15T23:35:40.125Z,17.16
2018-07-15T23:38:08.920Z,17.20
2018-07-15T23:40:37.639Z,17.30
2018-07-15T23:43:06.324Z,17.34
2018-07-15T23:45:36.048Z,17.43
2018-07-15T23:48:04.632Z,17.35
2018-07-15T23:50:33.260Z,17.34
2018-07-15T23:53:01.851Z,17.38
2018-07-15T23:55:30.666Z,17.24
2018-07-15T23:57:59.255Z,17.18
